createdAt,value
2022-10-08T00:01:07.026Z,10.55
2022-10-08T00:03:37.175Z,11.43
2022-10-08T00:06:17.109Z,12.85
2022-10-08T00:08:49.331Z,12.65
2022-10-08T00:11:19.480Z,12.82
2022-10-08T00:13:48.017Z,13.10
2022-10-08T00:16:27.614Z,11.77
2022-10-08T00:18:57.740Z,12.82
2022-10-08T00:21:28.153Z,13.55
2022-10-08T00:23:54.807Z,13.52
2022-10-08T00:26:24.226Z,13.88
2022-10-08T00:28:52.925Z,13.82
2022-10-08T00:31:32.207Z,13.25
2022-10-08T00:34:01.525Z,13.48
2022-10-08T00:36:31.662Z,13.23
2022-10-08T00:39:01.073Z,13.05
2022-10-08T00:41:31.876Z,13.95
2022-10-08T00:44:02.027Z,12.50
2022-10-08T00:46:35.426Z,12.25
2022-10-08T00:49:12.003Z,12.95
2022-10-08T00:51:44.086Z,11.32
2022-10-08T00:54:13.981Z,11.95
2022-10-08T00:56:41.314Z,10.68
2022-10-08T00:59:13.326Z,11.18
2022-10-08T01:01:43.764Z,11.63
2022-10-08T01:04:12.557Z,11.27
2022-10-08T01:07:03.914Z,11.15
2022-10-08T01:09:54.133Z,11.25
2022-10-08T01:12:43.359Z,9.73
2022-10-08T01:15:23.310Z,10.25
2022-10-08T01:18:41.372Z,9.85
2022-10-08T01:21:34.911Z,11.00
2022-10-08T01:25:02.453Z,10.05
2022-10-08T01:27:45.960Z,10.23
2022-10-08T01:30:17.891Z,8.98
2022-10-08T01:32:53.534Z,9.80
2022-10-08T01:35:26.150Z,9.60
2022-10-08T01:37:58.172Z,10.30
2022-10-08T01:40:31.226Z,10.80
2022-10-08T01:43:03.544Z,10.50
2022-10-08T01:45:38.617Z,10.43
2022-10-08T01:50:38.775Z,11.57
2022-10-08T01:53:11.439Z,10.52
2022-10-08T01:55:42.043Z,10.50
2022-10-08T01:58:14.553Z,10.73
2022-10-08T02:00:42.166Z,11.15
2022-10-08T02:03:13.315Z,9.82
2022-10-08T02:05:45.330Z,10.25
2022-10-08T02:08:12.033Z,10.55
2022-10-08T02:10:38.991Z,10.15
2022-10-08T02:13:05.833Z,10.27
2022-10-08T02:15:45.690Z,9.57
2022-10-08T02:18:18.985Z,9.57
2022-10-08T02:21:04.779Z,9.38
2022-10-08T02:23:34.442Z,9.27
2022-10-08T02:26:04.120Z,10.88
2022-10-08T02:28:30.739Z,10.45
2022-10-08T02:31:09.828Z,11.10
2022-10-08T02:33:40.623Z,10.52
2022-10-08T02:36:08.794Z,10.80
2022-10-08T02:38:40.573Z,12.52
2022-10-08T02:41:10.680Z,11.43
2022-10-08T02:43:42.494Z,10.70
2022-10-08T02:46:17.582Z,11.05
2022-10-08T02:49:06.740Z,10.70
2022-10-08T02:51:37.448Z,11.20
2022-10-08T02:54:06.196Z,10.55
2022-10-08T02:56:41.064Z,11.75
2022-10-08T02:59:10.642Z,10.63
2022-10-08T03:01:45.414Z,11.25
2022-10-08T03:04:36.396Z,10.30
2022-10-08T03:07:03.972Z,10.68
2022-10-08T03:09:40.896Z,10.95
2022-10-08T03:12:07.942Z,11.02
2022-10-08T03:14:39.209Z,10.18
2022-10-08T03:17:12.633Z,11.55
2022-10-08T03:19:39.280Z,10.40
2022-10-08T03:22:07.928Z,10.45
2022-10-08T03:24:36.102Z,10.27
2022-10-08T03:27:03.986Z,10.23
2022-10-08T03:29:30.649Z,10.85
2022-10-08T03:31:59.843Z,11.13
2022-10-08T03:34:26.894Z,11.73
2022-10-08T03:36:53.498Z,11.02
2022-10-08T03:39:20.164Z,10.18
2022-10-08T03:41:46.774Z,9.02
2022-10-08T03:44:13.414Z,9.52
2022-10-08T03:46:40.020Z,9.57
2022-10-08T03:49:06.696Z,10.07
2022-10-08T03:51:33.327Z,10.52
2022-10-08T03:53:59.953Z,10.18
2022-10-08T03:56:26.665Z,10.73
2022-10-08T03:58:58.184Z,10.68
2022-10-08T04:01:26.168Z,11.38
2022-10-08T04:03:53.185Z,11.80
2022-10-08T04:06:20.684Z,11.68
2022-10-08T04:08:47.527Z,11.55
2022-10-08T04:11:16.473Z,11.70
2022-10-08T04:13:44.187Z,11.40
2022-10-08T04:16:15.158Z,11.52
2022-10-08T04:18:42.537Z,11.40
2022-10-08T04:21:14.074Z,12.25
2022-10-08T04:23:41.707Z,12.00
2022-10-08T04:26:11.809Z,11.23
2022-10-08T04:28:40.390Z,12.55
2022-10-08T04:31:10.537Z,11.65
2022-10-08T04:33:37.990Z,12.52
2022-10-08T04:36:13.286Z,11.75
2022-10-08T04:38:41.591Z,11.55
2022-10-08T04:41:10.930Z,12.25
2022-10-08T04:43:39.149Z,13.27
2022-10-08T04:46:08.412Z,11.50
2022-10-08T04:48:35.773Z,12.10
2022-10-08T04:51:09.443Z,11.77
2022-10-08T04:53:37.469Z,12.10
2022-10-08T04:56:16.895Z,11.45
2022-10-08T04:58:44.427Z,12.15
2022-10-08T05:01:13.933Z,11.75
2022-10-08T05:03:43.403Z,9.90
2022-10-08T05:06:17.492Z,9.63
2022-10-08T05:08:45.047Z,8.67
2022-10-08T05:11:12.345Z,8.30
2022-10-08T05:13:39.253Z,7.88
2022-10-08T05:16:08.530Z,8.38
2022-10-08T05:18:36.251Z,7.20
2022-10-08T05:21:08.617Z,7.28
2022-10-08T05:23:36.205Z,7.57
2022-10-08T05:26:12.365Z,6.90
2022-10-08T05:28:39.157Z,7.85
2022-10-08T05:31:05.856Z,8.15
2022-10-08T05:33:32.565Z,8.93
2022-10-08T05:36:03.764Z,9.23
2022-10-08T05:38:34.772Z,8.18
2022-10-08T05:41:10.227Z,9.48
2022-10-08T05:46:04.217Z,8.95
2022-10-08T05:48:30.942Z,12.68
2022-10-08T05:51:24.499Z,10.43
2022-10-08T05:53:53.709Z,11.35
2022-10-08T05:56:22.547Z,12.70
2022-10-08T05:58:50.131Z,9.25
2022-10-08T06:01:25.898Z,11.05
2022-10-08T06:03:54.950Z,13.32
2022-10-08T06:06:22.941Z,14.55
2022-10-08T06:09:13.185Z,14.77
2022-10-08T06:11:41.914Z,17.83
2022-10-08T06:14:16.679Z,17.13
2022-10-08T06:16:43.521Z,15.60
2022-10-08T06:19:13.396Z,15.85
2022-10-08T06:21:40.143Z,16.45
2022-10-08T06:24:13.265Z,15.35
2022-10-08T06:26:42.035Z,16.45
2022-10-08T06:29:12.987Z,16.88
2022-10-08T06:31:39.737Z,18.60
2022-10-08T06:34:06.597Z,18.45
2022-10-08T06:36:34.685Z,19.38
2022-10-08T06:39:07.701Z,19.65
2022-10-08T06:41:34.969Z,18.15
2022-10-08T06:44:03.933Z,17.95
2022-10-08T06:46:32.229Z,20.13
2022-10-08T06:49:00.638Z,21.55
2022-10-08T06:51:28.452Z,22.92
2022-10-08T06:54:05.938Z,20.70
2022-10-08T06:56:35.755Z,21.13
2022-10-08T06:59:02.368Z,22.30
2022-10-08T07:01:33.236Z,24.75
2022-10-08T07:04:01.458Z,26.17
2022-10-08T07:06:28.626Z,27.10
2022-10-08T07:08:57.625Z,25.40
2022-10-08T07:11:25.099Z,25.85
2022-10-08T07:13:52.184Z,28.65
2022-10-08T07:16:21.841Z,28.33
2022-10-08T07:18:50.734Z,29.02
2022-10-08T07:21:19.326Z,28.35
2022-10-08T07:23:45.981Z,30.02
2022-10-08T07:26:15.802Z,28.05
2022-10-08T07:28:48.196Z,28.40
2022-10-08T07:31:21.373Z,29.33
2022-10-08T07:33:48.318Z,29.50
2022-10-08T07:36:20.501Z,30.40
2022-10-08T07:38:50.303Z,29.02
2022-10-08T07:41:16.934Z,32.58
2022-10-08T07:43:43.635Z,30.38
2022-10-08T07:46:11.813Z,29.58
2022-10-08T07:48:39.378Z,28.25
2022-10-08T07:51:08.462Z,28.63
2022-10-08T07:53:35.737Z,27.52
2022-10-08T07:56:02.742Z,25.48
2022-10-08T07:58:29.494Z,25.98
2022-10-08T08:00:57.982Z,26.20
2022-10-08T08:03:25.433Z,27.88
2022-10-08T08:05:53.979Z,28.08
2022-10-08T08:08:24.752Z,27.95
2022-10-08T08:11:02.903Z,26.00
2022-10-08T08:13:35.951Z,26.00
2022-10-08T08:16:06.645Z,27.48
2022-10-08T08:18:35.692Z,30.27
2022-10-08T08:21:07.944Z,33.08
2022-10-08T08:23:38.449Z,32.15
2022-10-08T08:26:10.948Z,31.52
2022-10-08T08:28:38.067Z,36.92
2022-10-08T08:31:15.667Z,36.67
2022-10-08T08:33:43.623Z,35.97
2022-10-08T08:36:12.825Z,38.17
2022-10-08T08:38:39.957Z,36.95
2022-10-08T08:41:27.933Z,42.05
2022-10-08T08:44:03.198Z,37.90
2022-10-08T08:46:33.005Z,37.85
2022-10-08T08:49:07.211Z,37.28
2022-10-08T08:51:34.555Z,38.53
2022-10-08T08:54:01.295Z,39.35
2022-10-08T08:56:28.858Z,38.13
2022-10-08T08:59:14.373Z,38.22
2022-10-08T09:04:34.593Z,34.45
2022-10-08T09:07:05.584Z,32.75
2022-10-08T09:09:43.875Z,34.33
2022-10-08T09:12:37.610Z,33.67
2022-10-08T09:15:13.705Z,29.90
2022-10-08T09:17:41.854Z,30.25
2022-10-08T09:20:11.048Z,29.77
2022-10-08T09:22:39.518Z,30.60
2022-10-08T09:25:20.770Z,28.45
2022-10-08T09:27:55.819Z,26.55
2022-10-08T09:33:01.395Z,28.80
2022-10-08T09:35:28.584Z,28.60
2022-10-08T09:37:56.586Z,28.02
2022-10-08T09:40:27.987Z,31.25
2022-10-08T09:43:17.522Z,30.75
2022-10-08T09:45:49.323Z,29.30
2022-10-08T09:48:28.045Z,27.77
2022-10-08T09:51:00.624Z,25.90
2022-10-08T09:53:49.272Z,27.45
2022-10-08T09:56:26.666Z,27.40
2022-10-08T09:59:05.560Z,26.58
2022-10-08T10:01:32.520Z,25.85
2022-10-08T10:04:02.057Z,27.08
2022-10-08T10:06:34.781Z,27.42
2022-10-08T10:09:25.396Z,25.92
2022-10-08T10:12:03.777Z,25.42
2022-10-08T10:14:46.370Z,25.85
2022-10-08T10:17:38.420Z,26.05
2022-10-08T10:20:26.690Z,26.58
2022-10-08T10:23:01.653Z,28.45
2022-10-08T10:25:41.426Z,27.02
2022-10-08T10:28:19.152Z,24.00
2022-10-08T10:31:09.356Z,25.17
2022-10-08T10:33:51.880Z,24.38
2022-10-08T10:36:20.728Z,26.30
2022-10-08T10:38:55.681Z,26.48
2022-10-08T10:42:01.679Z,24.52
2022-10-08T10:44:44.689Z,23.40
2022-10-08T10:47:12.194Z,25.00
2022-10-08T10:49:42.438Z,24.83
2022-10-08T10:52:11.908Z,20.40
2022-10-08T10:54:44.326Z,22.30
2022-10-08T10:57:24.883Z,22.70
2022-10-08T11:00:06.634Z,22.25
2022-10-08T11:02:46.817Z,21.02
2022-10-08T11:05:27.050Z,22.48
2022-10-08T11:08:03.198Z,18.95
2022-10-08T11:11:04.082Z,19.33
2022-10-08T11:13:44.671Z,21.58
2022-10-08T11:16:18.198Z,20.75
2022-10-08T11:18:51.229Z,23.20
2022-10-08T11:21:42.741Z,21.98
2022-10-08T11:24:38.401Z,20.50
2022-10-08T11:27:12.816Z,20.92
2022-10-08T11:30:14.201Z,21.55
2022-10-08T11:32:50.758Z,22.67
2022-10-08T11:35:43.127Z,22.30
2022-10-08T11:38:24.847Z,22.38
2022-10-08T11:41:06.059Z,23.40
2022-10-08T11:43:32.687Z,21.67
2022-10-08T11:46:28.990Z,22.80
2022-10-08T11:49:00.701Z,22.27
2022-10-08T11:51:30.721Z,22.75
2022-10-08T11:54:09.574Z,23.48
2022-10-08T11:56:39.270Z,22.60
2022-10-08T11:59:52.307Z,21.85
2022-10-08T12:02:23.019Z,22.75
2022-10-08T12:04:51.696Z,21.90
2022-10-08T12:07:34.203Z,22.33
2022-10-08T12:10:06.944Z,22.27
2022-10-08T12:12:49.448Z,21.73
2022-10-08T12:15:38.889Z,23.35
2022-10-08T12:18:17.315Z,22.17
2022-10-08T12:20:44.604Z,21.58
2022-10-08T12:23:35.725Z,22.13
2022-10-08T12:26:08.811Z,21.80
2022-10-08T12:28:35.653Z,21.45
2022-10-08T12:31:21.023Z,23.45
2022-10-08T12:34:13.036Z,21.42
2022-10-08T12:36:50.031Z,21.02
2022-10-08T12:39:24.418Z,23.35
2022-10-08T12:42:32.407Z,22.30
2022-10-08T12:45:26.422Z,20.30
2022-10-08T12:48:03.541Z,20.08
2022-10-08T12:51:26.983Z,21.80
2022-10-08T12:53:54.167Z,22.15
2022-10-08T12:56:29.454Z,22.58
2022-10-08T12:58:59.785Z,21.80
2022-10-08T13:01:26.995Z,21.52
2022-10-08T13:04:26.814Z,19.90
2022-10-08T13:06:55.026Z,20.05
2022-10-08T13:09:27.699Z,19.40
2022-10-08T13:12:01.995Z,18.75
2022-10-08T13:14:39.231Z,19.90
2022-10-08T13:17:07.031Z,18.83
2022-10-08T13:19:37.233Z,17.83
2022-10-08T13:22:07.831Z,16.20
2022-10-08T13:24:43.063Z,14.98
2022-10-08T13:27:25.260Z,15.20
2022-10-08T13:29:52.474Z,13.77
2022-10-08T13:32:29.358Z,13.15
2022-10-08T13:34:59.162Z,13.60
2022-10-08T13:37:31.716Z,15.25
2022-10-08T13:40:01.211Z,14.32
2022-10-08T13:42:34.034Z,13.93
2022-10-08T13:45:03.328Z,15.98
2022-10-08T13:47:30.066Z,14.38
2022-10-08T13:50:01.721Z,15.60
2022-10-08T13:52:30.399Z,16.13
2022-10-08T13:55:00.962Z,15.95
2022-10-08T13:57:27.613Z,16.58
2022-10-08T13:59:54.382Z,16.48
2022-10-08T14:02:23.927Z,18.38
2022-10-08T14:04:51.390Z,19.20
2022-10-08T14:07:31.267Z,18.55
2022-10-08T14:10:00.220Z,17.63
2022-10-08T14:12:32.222Z,18.92
2022-10-08T14:14:59.943Z,18.48
2022-10-08T14:17:26.666Z,18.65
2022-10-08T14:19:55.387Z,19.42
2022-10-08T14:22:22.741Z,19.00
2022-10-08T14:24:49.415Z,19.20
2022-10-08T14:27:16.234Z,18.48
2022-10-08T14:29:43.031Z,18.27
2022-10-08T14:32:11.289Z,21.15
2022-10-08T14:34:38.068Z,20.55
2022-10-08T14:37:05.743Z,22.17
2022-10-08T14:39:32.464Z,19.50
2022-10-08T14:41:59.100Z,18.27
2022-10-08T14:44:25.801Z,18.92
2022-10-08T14:46:52.798Z,18.80
2022-10-08T14:49:20.551Z,19.65
2022-10-08T14:51:47.617Z,18.55
2022-10-08T14:54:14.255Z,19.73
2022-10-08T14:56:44.080Z,18.90
2022-10-08T14:59:16.498Z,19.15
2022-10-08T15:01:43.396Z,23.08
2022-10-08T15:04:13.581Z,21.55
2022-10-08T15:06:40.458Z,21.05
2022-10-08T15:09:07.113Z,20.92
2022-10-08T15:11:33.802Z,21.92
2022-10-08T15:14:00.420Z,21.73
2022-10-08T15:16:27.128Z,20.27
2022-10-08T15:18:53.825Z,21.30
2022-10-08T15:21:20.688Z,20.75
2022-10-08T15:23:47.390Z,20.20
2022-10-08T15:26:15.877Z,19.55
2022-10-08T15:28:43.780Z,19.38
2022-10-08T15:31:18.714Z,20.48
2022-10-08T15:33:50.449Z,20.60
2022-10-08T15:36:18.615Z,19.52
2022-10-08T15:38:45.950Z,20.02
2022-10-08T15:41:17.291Z,19.85
2022-10-08T15:43:44.234Z,20.73
2022-10-08T15:46:13.358Z,18.70
2022-10-08T15:48:40.140Z,16.73
2022-10-08T15:51:07.374Z,16.85
2022-10-08T15:53:35.471Z,17.80
2022-10-08T15:56:02.626Z,16.55
2022-10-08T15:58:50.482Z,17.67
2022-10-08T16:01:19.730Z,16.20
2022-10-08T16:03:47.943Z,17.52
2022-10-08T16:06:18.182Z,16.60
2022-10-08T16:08:45.104Z,16.15
2022-10-08T16:11:16.292Z,16.63
2022-10-08T16:13:49.048Z,16.42
2022-10-08T16:16:19.143Z,16.30
2022-10-08T16:18:47.319Z,16.92
2022-10-08T16:21:14.275Z,16.10
2022-10-08T16:23:41.025Z,13.20
2022-10-08T16:26:10.684Z,12.70
2022-10-08T16:28:39.453Z,12.68
2022-10-08T16:31:07.742Z,12.02
2022-10-08T16:33:34.850Z,11.68
2022-10-08T16:36:04.158Z,13.05
2022-10-08T16:38:31.254Z,15.70
2022-10-08T16:41:11.050Z,14.07
2022-10-08T16:43:37.731Z,13.40
2022-10-08T16:46:04.493Z,12.55
2022-10-08T16:48:31.349Z,13.32
2022-10-08T16:51:01.857Z,14.13
2022-10-08T16:53:28.464Z,17.85
2022-10-08T16:55:55.118Z,14.30
2022-10-08T16:58:21.743Z,14.73
2022-10-08T17:00:48.458Z,15.38
2022-10-08T17:03:17.781Z,16.13
2022-10-08T17:05:44.398Z,16.80
2022-10-08T17:08:11.115Z,17.08
2022-10-08T17:10:37.782Z,16.88
2022-10-08T17:13:04.398Z,16.40
2022-10-08T17:15:31.024Z,17.17
2022-10-08T17:17:57.660Z,16.40
2022-10-08T17:20:27.056Z,13.35
2022-10-08T17:22:53.658Z,13.93
2022-10-08T17:25:20.487Z,14.98
2022-10-08T17:27:47.131Z,13.20
2022-10-08T17:30:14.160Z,13.07
2022-10-08T17:32:40.801Z,11.90
2022-10-08T17:35:07.830Z,11.80
2022-10-08T17:37:34.543Z,13.02
2022-10-08T17:40:01.165Z,12.35
2022-10-08T17:42:27.849Z,13.23
2022-10-08T17:44:54.500Z,16.13
2022-10-08T17:47:22.847Z,17.42
2022-10-08T17:49:52.413Z,18.27
2022-10-08T17:52:19.059Z,18.42
2022-10-08T17:54:45.696Z,20.20
2022-10-08T17:57:12.798Z,14.68
2022-10-08T17:59:39.456Z,18.02
2022-10-08T18:02:06.337Z,18.27
2022-10-08T18:04:33.030Z,15.32
2022-10-08T18:07:03.283Z,15.98
2022-10-08T18:09:30.455Z,13.73
2022-10-08T18:11:57.350Z,15.20
2022-10-08T18:14:24.009Z,14.50
2022-10-08T18:16:51.040Z,14.55
2022-10-08T18:19:20.547Z,15.40
2022-10-08T18:21:47.278Z,16.88
2022-10-08T18:24:14.741Z,14.52
2022-10-08T18:26:43.726Z,14.90
2022-10-08T18:29:12.472Z,13.27
2022-10-08T18:31:41.866Z,14.00
2022-10-08T18:34:12.566Z,17.33
2022-10-08T18:36:40.141Z,15.43
2022-10-08T18:39:10.338Z,15.32
2022-10-08T18:41:41.099Z,15.32
2022-10-08T18:44:13.440Z,17.65
2022-10-08T18:46:40.291Z,16.48
2022-10-08T18:49:07.426Z,14.65
2022-10-08T18:51:34.544Z,20.83
2022-10-08T18:54:02.088Z,20.48
2022-10-08T18:56:31.210Z,12.25
2022-10-08T18:59:03.042Z,17.67
2022-10-08T19:01:32.627Z,14.52
2022-10-08T19:04:01.287Z,31.98
2022-10-08T19:06:30.724Z,29.40
2022-10-08T19:08:58.720Z,28.23
2022-10-08T19:11:32.874Z,28.52
2022-10-08T19:14:03.230Z,27.95
2022-10-08T19:16:30.849Z,15.77
2022-10-08T19:19:02.418Z,16.55
2022-10-08T19:21:30.751Z,18.05
2022-10-08T19:23:58.705Z,18.05
2022-10-08T19:26:26.769Z,15.48
2022-10-08T19:28:54.583Z,14.90
2022-10-08T19:31:27.123Z,14.45
2022-10-08T19:33:59.196Z,15.40
2022-10-08T19:36:27.903Z,16.20
2022-10-08T19:38:59.541Z,32.55
2022-10-08T19:41:29.540Z,43.55
2022-10-08T19:43:59.587Z,26.80
2022-10-08T19:46:27.459Z,22.42
2022-10-08T19:48:56.195Z,21.73
2022-10-08T19:51:24.834Z,14.48
2022-10-08T19:53:52.027Z,13.27
2022-10-08T19:56:20.443Z,15.50
2022-10-08T19:58:53.102Z,18.45
2022-10-08T20:01:23.052Z,16.52
2022-10-08T20:03:54.734Z,17.10
2022-10-08T20:06:24.809Z,16.48
2022-10-08T20:08:57.165Z,15.15
2022-10-08T20:11:24.486Z,13.70
2022-10-08T20:13:52.787Z,13.63
2022-10-08T20:16:25.534Z,15.60
2022-10-08T20:18:55.034Z,13.40
2022-10-08T20:21:22.496Z,13.63
2022-10-08T20:23:49.619Z,12.55
2022-10-08T20:26:25.457Z,10.98
2022-10-08T20:28:54.677Z,11.25
2022-10-08T20:31:26.979Z,10.52
2022-10-08T20:34:28.536Z,12.60
2022-10-08T20:36:55.240Z,21.20
2022-10-08T20:39:22.278Z,20.38
2022-10-08T20:41:49.585Z,14.48
2022-10-08T20:44:16.664Z,14.00
2022-10-08T20:46:43.724Z,13.65
2022-10-08T20:49:12.379Z,14.65
2022-10-08T20:51:41.920Z,12.10
2022-10-08T20:54:11.033Z,13.18
2022-10-08T20:56:40.250Z,12.57
2022-10-08T20:59:17.810Z,23.08
2022-10-08T21:01:45.257Z,18.48
2022-10-08T21:04:12.270Z,19.42
2022-10-08T21:06:44.943Z,16.65
2022-10-08T21:09:12.808Z,12.40
2022-10-08T21:11:40.213Z,13.27
2022-10-08T21:14:08.835Z,12.38
2022-10-08T21:16:39.044Z,12.13
2022-10-08T21:19:09.711Z,69.32
2022-10-08T21:21:36.393Z,14.20
2022-10-08T21:24:03.073Z,12.95
2022-10-08T21:26:35.692Z,15.38
2022-10-08T21:29:04.732Z,27.50
2022-10-08T21:31:33.900Z,24.25
2022-10-08T21:34:01.346Z,28.20
2022-10-08T21:36:31.017Z,26.30
2022-10-08T21:39:01.894Z,27.63
2022-10-08T21:41:31.460Z,24.48
2022-10-08T21:44:00.564Z,23.08
2022-10-08T21:46:33.603Z,16.67
2022-10-08T21:49:22.185Z,17.55
2022-10-08T21:51:48.901Z,15.10
2022-10-08T21:54:17.360Z,16.30
2022-10-08T21:56:44.638Z,16.13
2022-10-08T21:59:14.500Z,27.27
2022-10-08T22:01:49.410Z,24.17
2022-10-08T22:06:53.257Z,15.32
2022-10-08T22:09:25.860Z,26.13
2022-10-08T22:11:53.583Z,23.42
2022-10-08T22:14:20.388Z,17.05
2022-10-08T22:16:47.629Z,15.63
2022-10-08T22:19:14.453Z,15.75
2022-10-08T22:21:41.150Z,18.83
2022-10-08T22:24:08.156Z,20.58
2022-10-08T22:26:41.689Z,20.95
2022-10-08T22:29:09.278Z,23.67
2022-10-08T22:31:36.702Z,20.67
2022-10-08T22:34:03.771Z,21.55
2022-10-08T22:36:35.292Z,21.42
2022-10-08T22:39:02.008Z,18.27
2022-10-08T22:41:31.182Z,21.52
2022-10-08T22:43:58.676Z,20.85
2022-10-08T22:46:34.269Z,20.65
2022-10-08T22:49:07.483Z,18.42
2022-10-08T22:51:34.312Z,17.05
2022-10-08T22:54:01.397Z,16.17
2022-10-08T22:56:35.856Z,15.95
2022-10-08T22:59:02.511Z,21.35
2022-10-08T23:01:30.481Z,14.82
2022-10-08T23:03:57.766Z,15.60
2022-10-08T23:06:27.144Z,13.70
2022-10-08T23:08:58.981Z,14.77
2022-10-08T23:11:26.733Z,13.30
2022-10-08T23:13:56.162Z,16.60
2022-10-08T23:16:24.311Z,14.77
2022-10-08T23:18:59.445Z,14.65
2022-10-08T23:21:26.554Z,13.90
2022-10-08T23:23:53.920Z,15.55
2022-10-08T23:26:21.681Z,15.13
2022-10-08T23:28:57.458Z,16.92
2022-10-08T23:31:27.336Z,14.77
2022-10-08T23:33:55.368Z,14.05
2022-10-08T23:36:25.272Z,13.52
2022-10-08T23:38:52.005Z,14.77
2022-10-08T23:41:19.181Z,15.30
2022-10-08T23:43:48.251Z,13.52
2022-10-08T23:46:17.631Z,13.95
2022-10-08T23:48:44.798Z,13.48
2022-10-08T23:51:12.966Z,14.35
2022-10-08T23:53:40.130Z,13.90
2022-10-08T23:56:07.361Z,13.88
2022-10-08T23:58:34.684Z,14.63
